createdAt,value
2022-11-15T00:01:31.803Z,10.07
2022-11-15T00:06:48.822Z,10.06
2022-11-15T00:12:08.073Z,10.11
2022-11-15T00:17:25.476Z,10.01
2022-11-15T00:22:42.802Z,9.90
2022-11-15T00:28:02.129Z,9.84
2022-11-15T00:33:20.308Z,9.87
2022-11-15T00:38:39.327Z,10.00
2022-11-15T00:43:57.937Z,9.93
2022-11-15T00:49:15.151Z,9.89
2022-11-15T00:54:32.064Z,9.90
2022-11-15T00:59:50.666Z,9.73
2022-11-15T01:05:09.058Z,9.77
2022-11-15T01:10:27.132Z,9.78
2022-11-15T01:15:45.976Z,9.84
2022-11-15T01:21:07.820Z,9.91
2022-11-15T01:26:26.340Z,10.04
2022-11-15T01:31:45.201Z,10.15
2022-11-15T01:37:02.293Z,10.18
2022-11-15T01:42:20.884Z,10.16
2022-11-15T01:47:42.770Z,10.13
2022-11-15T01:53:00.183Z,10.10
2022-11-15T01:58:17.725Z,10.14
2022-11-15T02:03:44.002Z,10.01
2022-11-15T02:09:02.714Z,9.95
2022-11-15T02:14:25.381Z,10.00
2022-11-15T02:20:14.322Z,9.96
2022-11-15T02:25:43.488Z,9.99
2022-11-15T02:31:09.241Z,10.04
2022-11-15T02:36:38.516Z,10.11
2022-11-15T02:41:59.958Z,10.12
2022-11-15T02:47:19.942Z,10.25
2022-11-15T02:52:37.676Z,10.32
2022-11-15T02:58:08.748Z,10.42
2022-11-15T03:03:44.701Z,10.45
2022-11-15T03:09:09.576Z,10.38
2022-11-15T03:14:32.101Z,10.37
2022-11-15T03:19:53.956Z,10.41
2022-11-15T03:25:15.558Z,10.44
2022-11-15T03:30:34.343Z,10.47
2022-11-15T03:35:55.192Z,10.47
2022-11-15T03:41:22.672Z,10.48
2022-11-15T03:46:45.349Z,10.49
2022-11-15T03:52:05.421Z,10.43
2022-11-15T03:57:23.320Z,10.39
2022-11-15T04:02:41.152Z,10.40
2022-11-15T04:07:59.667Z,10.50
2022-11-15T04:13:16.634Z,10.56
2022-11-15T04:18:33.562Z,10.47
2022-11-15T04:24:06.262Z,10.47
2022-11-15T04:29:38.797Z,10.48
2022-11-15T04:34:56.062Z,10.55
2022-11-15T04:40:14.887Z,10.52
2022-11-15T04:45:32.521Z,10.44
2022-11-15T04:50:50.128Z,10.40
2022-11-15T04:56:09.448Z,10.32
2022-11-15T05:01:26.996Z,10.42
2022-11-15T05:06:44.114Z,10.49
2022-11-15T05:12:02.359Z,10.41
2022-11-15T05:22:45.534Z,10.45
2022-11-15T05:28:04.758Z,10.48
2022-11-15T05:33:22.064Z,10.53
2022-11-15T05:38:40.009Z,10.50
2022-11-15T05:43:59.687Z,10.50
2022-11-15T05:49:22.211Z,10.54
2022-11-15T05:54:39.792Z,10.60
2022-11-15T05:59:58.829Z,10.63
2022-11-15T06:05:16.245Z,10.59
2022-11-15T06:10:33.047Z,10.66
2022-11-15T06:15:51.404Z,10.72
2022-11-15T06:21:08.669Z,10.71
2022-11-15T06:26:25.714Z,10.69
2022-11-15T06:31:44.190Z,10.74
2022-11-15T06:37:01.437Z,10.83
2022-11-15T06:42:19.055Z,10.82
2022-11-15T06:47:37.872Z,10.90
2022-11-15T06:52:55.568Z,10.86
2022-11-15T06:58:12.820Z,10.81
2022-11-15T07:03:31.254Z,10.89
2022-11-15T07:08:48.821Z,10.95
2022-11-15T07:14:05.695Z,10.97
2022-11-15T07:19:24.161Z,11.00
2022-11-15T07:24:41.413Z,10.92
2022-11-15T07:29:58.675Z,10.91
2022-11-15T07:35:17.346Z,10.96
2022-11-15T07:40:35.009Z,11.13
2022-11-15T07:45:57.555Z,11.28
2022-11-15T07:51:18.758Z,11.17
2022-11-15T07:56:35.731Z,11.27
2022-11-15T08:01:53.146Z,11.37
2022-11-15T08:07:11.983Z,11.55
2022-11-15T08:12:29.793Z,11.56
2022-11-15T08:17:47.294Z,11.61
2022-11-15T08:23:07.298Z,11.73
2022-11-15T08:28:25.948Z,11.80
2022-11-15T08:33:43.193Z,11.72
2022-11-15T08:39:02.485Z,11.71
2022-11-15T08:44:19.553Z,11.80
2022-11-15T08:49:36.940Z,11.71
2022-11-15T08:54:55.532Z,11.67
2022-11-15T09:00:14.425Z,11.80
2022-11-15T09:05:31.753Z,11.93
2022-11-15T09:10:50.356Z,12.09
2022-11-15T09:16:08.426Z,12.05
2022-11-15T09:21:25.535Z,12.17
2022-11-15T09:26:43.973Z,12.23
2022-11-15T09:32:01.488Z,12.22
2022-11-15T09:37:18.846Z,12.21
2022-11-15T09:42:54.627Z,12.37
2022-11-15T09:48:33.437Z,12.49
2022-11-15T09:59:46.457Z,12.24
2022-11-15T10:04:45.250Z,12.47
2022-11-15T10:09:51.626Z,12.41
2022-11-15T10:14:57.517Z,12.39
2022-11-15T10:20:07.830Z,12.48
2022-11-15T10:25:18.388Z,12.55
2022-11-15T10:30:20.457Z,12.26
2022-11-15T10:35:24.759Z,12.32
2022-11-15T10:40:26.219Z,12.03
2022-11-15T10:45:29.308Z,11.95
2022-11-15T10:50:31.036Z,12.11
2022-11-15T10:55:33.845Z,12.12
2022-11-15T11:00:37.198Z,12.24
2022-11-15T11:05:41.825Z,12.25
2022-11-15T11:10:58.583Z,12.31
2022-11-15T11:16:26.963Z,12.25
2022-11-15T11:21:39.750Z,12.16
2022-11-15T11:26:51.698Z,12.21
2022-11-15T11:32:03.555Z,12.25
2022-11-15T11:37:13.206Z,12.21
2022-11-15T11:42:20.119Z,12.28
2022-11-15T11:47:25.485Z,12.21
2022-11-15T11:52:28.297Z,11.97
2022-11-15T11:57:35.852Z,11.77
2022-11-15T12:02:41.359Z,11.88
2022-11-15T12:07:43.268Z,11.87
2022-11-15T12:12:49.724Z,11.73
2022-11-15T12:17:50.782Z,11.62
2022-11-15T12:22:56.228Z,11.55
2022-11-15T12:27:59.743Z,11.59
2022-11-15T12:33:01.590Z,11.68
2022-11-15T12:38:00.696Z,11.72
2022-11-15T12:43:05.395Z,11.79
2022-11-15T12:48:41.893Z,11.95
2022-11-15T12:53:42.148Z,11.93
2022-11-15T12:58:45.037Z,11.99
2022-11-15T13:04:10.350Z,11.99
2022-11-15T13:09:42.144Z,12.05
2022-11-15T13:14:48.339Z,12.07
2022-11-15T13:19:48.914Z,12.01
2022-11-15T13:24:47.722Z,12.02
2022-11-15T13:29:47.902Z,11.81
2022-11-15T13:34:52.745Z,11.80
2022-11-15T13:39:52.079Z,11.89
2022-11-15T13:44:59.579Z,11.94
2022-11-15T13:49:59.669Z,11.77
2022-11-15T13:55:03.352Z,11.83
2022-11-15T14:00:07.004Z,11.73
2022-11-15T14:05:21.432Z,11.25
2022-11-15T14:10:29.655Z,11.28
2022-11-15T14:15:33.281Z,11.40
2022-11-15T14:20:36.421Z,11.50
2022-11-15T14:25:37.213Z,11.51
2022-11-15T14:30:37.380Z,11.55
2022-11-15T14:35:41.072Z,11.51
2022-11-15T14:40:40.212Z,11.56
2022-11-15T14:45:40.851Z,11.60
2022-11-15T14:50:39.868Z,11.56
2022-11-15T14:55:38.663Z,11.51
2022-11-15T15:00:37.815Z,11.31
2022-11-15T15:05:41.556Z,11.31
2022-11-15T15:10:43.235Z,11.28
2022-11-15T15:15:42.010Z,10.96
2022-11-15T15:20:43.907Z,10.61
2022-11-15T15:25:43.128Z,10.52
2022-11-15T15:30:42.295Z,10.47
2022-11-15T15:35:42.491Z,10.58
2022-11-15T15:40:41.565Z,10.38
2022-11-15T15:45:41.965Z,10.36
2022-11-15T15:50:43.915Z,10.48
2022-11-15T15:55:42.824Z,10.37
2022-11-15T16:00:41.792Z,10.52
2022-11-15T16:05:42.214Z,10.38
2022-11-15T16:10:41.026Z,10.28
2022-11-15T16:15:40.017Z,10.17
2022-11-15T16:20:43.196Z,10.27
2022-11-15T16:25:44.411Z,10.50
2022-11-15T16:30:42.977Z,10.45
2022-11-15T16:35:42.024Z,10.51
2022-11-15T16:40:40.856Z,10.53
2022-11-15T16:45:41.072Z,10.51
2022-11-15T16:50:43.151Z,10.45
2022-11-15T16:55:41.896Z,10.47
2022-11-15T17:00:42.059Z,10.38
2022-11-15T17:05:40.784Z,10.34
2022-11-15T17:10:41.523Z,10.44
2022-11-15T17:15:41.847Z,10.50
2022-11-15T17:20:42.319Z,10.52
2022-11-15T17:25:41.508Z,10.45
2022-11-15T17:30:44.405Z,10.42
2022-11-15T17:35:43.180Z,10.47
2022-11-15T17:40:41.997Z,10.52
2022-11-15T17:45:43.302Z,10.34
2022-11-15T17:50:42.307Z,10.39
2022-11-15T17:55:41.134Z,10.34
2022-11-15T18:00:39.924Z,10.15
2022-11-15T18:05:41.165Z,10.19
2022-11-15T18:10:39.987Z,10.26
2022-11-15T18:15:38.739Z,10.21
2022-11-15T18:20:39.084Z,10.26
2022-11-15T18:25:37.887Z,10.34
2022-11-15T18:30:39.741Z,10.33
2022-11-15T18:35:40.524Z,10.18
2022-11-15T18:40:39.287Z,10.14
2022-11-15T18:45:37.980Z,10.04
2022-11-15T18:50:36.742Z,10.00
2022-11-15T18:55:36.930Z,9.88
2022-11-15T19:00:35.702Z,9.87
2022-11-15T19:05:35.477Z,10.00
2022-11-15T19:10:37.217Z,9.94
2022-11-15T19:15:36.499Z,10.08
2022-11-15T19:20:37.144Z,10.17
2022-11-15T19:25:37.231Z,10.17
2022-11-15T19:30:36.345Z,10.17
2022-11-15T19:35:47.138Z,10.23
2022-11-15T19:40:47.278Z,10.20
2022-11-15T19:45:56.973Z,10.23
2022-11-15T19:51:02.085Z,10.20
2022-11-15T19:56:04.227Z,10.18
2022-11-15T20:01:04.395Z,10.24
2022-11-15T20:06:05.209Z,10.24
2022-11-15T20:11:06.884Z,9.96
2022-11-15T20:16:06.358Z,9.96
2022-11-15T20:21:08.411Z,9.84
2022-11-15T20:26:10.876Z,9.75
2022-11-15T20:31:11.103Z,9.87
2022-11-15T20:36:17.945Z,9.91
2022-11-15T20:41:21.731Z,10.00
2022-11-15T20:46:22.785Z,10.09
2022-11-15T20:51:23.070Z,10.14
2022-11-15T20:56:25.801Z,10.17
2022-11-15T21:01:25.600Z,10.20
2022-11-15T21:06:26.237Z,10.20
2022-11-15T21:11:44.260Z,10.19
2022-11-15T21:16:43.165Z,10.19
2022-11-15T21:21:42.326Z,10.22
2022-11-15T21:26:42.963Z,10.18
2022-11-15T21:31:41.963Z,10.11
2022-11-15T21:36:40.787Z,10.10
2022-11-15T21:41:39.683Z,10.12
2022-11-15T21:46:40.131Z,10.08
2022-11-15T21:51:39.138Z,10.04
2022-11-15T21:56:38.017Z,9.67
2022-11-15T22:01:54.328Z,9.64
2022-11-15T22:06:54.511Z,9.72
2022-11-15T22:11:53.530Z,9.61
2022-11-15T22:16:52.414Z,9.41
2022-11-15T22:21:51.454Z,9.60
2022-11-15T22:26:52.051Z,9.46
2022-11-15T22:31:51.138Z,9.53
2022-11-15T22:37:18.046Z,9.61
2022-11-15T22:42:10.764Z,9.47
2022-11-15T22:47:09.784Z,9.34
2022-11-15T22:52:08.713Z,9.49
2022-11-15T22:57:07.645Z,9.29
2022-11-15T23:07:57.848Z,9.39
2022-11-15T23:13:14.000Z,9.55
2022-11-15T23:18:16.819Z,9.68
2022-11-15T23:23:15.967Z,9.69
2022-11-15T23:28:14.997Z,9.58
2022-11-15T23:33:34.724Z,9.58
2022-11-15T23:38:35.303Z,9.36
2022-11-15T23:43:34.542Z,9.43
2022-11-15T23:48:35.161Z,9.40
2022-11-15T23:53:34.345Z,9.43
2022-11-15T23:58:33.570Z,9.44
